Time;durP1;ratioP1;P1;durP2;ratioP2;P2;SDS_P1;SDS_P2;PMS_P1;PMS_P2;Temp;Humidity;BMP_temperature;BMP_pressure;BME280_temperature;BME280_humidity;BME280_pressure;Samples;Min_cycle;Max_cycle;Signal;HPM_P1;HPM_P2
2023/10/14 00:01:11;;;;;;;6.25;3.80;;;;;;;;;;5046847;28;20246;-65
2023/10/14 00:03:41;;;;;;;4.18;3.60;;;;;;;;;;5047012;28;20310;-64
2023/10/14 00:06:11;;;;;;;8.57;3.92;;;;;;;;;;5045928;28;20232;-64
2023/10/14 00:08:47;;;;;;;5.35;3.45;;;;;;;;;;5047070;28;20233;-64
2023/10/14 00:11:14;;;;;;;6.93;3.40;;;;;;;;;;5038558;28;20214;-66
2023/10/14 00:13:42;;;;;;;8.63;3.85;;;;;;;;;;5046425;28;20258;-65
2023/10/14 00:16:24;;;;;;;5.60;4.07;;;;;;;;;;5046439;28;20200;-65
2023/10/14 00:18:55;;;;;;;7.18;3.85;;;;;;;;;;5047074;28;20215;-65
2023/10/14 00:21:23;;;;;;;5.45;3.25;;;;;;;;;;5047064;28;20234;-65
2023/10/14 00:23:50;;;;;;;4.10;3.75;;;;;;;;;;5046094;28;20202;-65
2023/10/14 00:26:20;;;;;;;6.97;3.42;;;;;;;;;;5046369;28;20696;-66
2023/10/14 00:28:54;;;;;;;5.03;3.92;;;;;;;;;;5046717;28;20210;-65
2023/10/14 00:31:21;;;;;;;14.05;3.80;;;;;;;;;;5046675;28;20211;-63
2023/10/14 00:33:48;;;;;;;8.02;3.72;;;;;;;;;;5046155;28;20297;-64
2023/10/14 00:36:17;;;;;;;15.88;4.32;;;;;;;;;;5046296;28;20203;-63
2023/10/14 00:38:45;;;;;;;5.22;4.13;;;;;;;;;;5030395;28;20206;-63
2023/10/14 00:41:12;;;;;;;6.75;4.00;;;;;;;;;;5046311;28;20298;-64
2023/10/14 00:43:40;;;;;;;11.20;3.58;;;;;;;;;;5045708;28;20602;-64
2023/10/14 00:46:11;;;;;;;5.72;4.13;;;;;;;;;;5045935;28;20227;-64
2023/10/14 00:48:40;;;;;;;13.77;4.00;;;;;;;;;;5046352;28;20239;-64
2023/10/14 00:51:10;;;;;;;7.78;3.53;;;;;;;;;;5046483;28;20306;-64
2023/10/14 00:53:39;;;;;;;10.10;3.83;;;;;;;;;;5045803;28;20210;-64
2023/10/14 00:56:10;;;;;;;8.05;4.28;;;;;;;;;;5044397;28;20303;-64
2023/10/14 00:58:41;;;;;;;10.25;4.35;;;;;;;;;;5045855;28;20199;-64
2023/10/14 01:01:08;;;;;;;4.15;3.70;;;;;;;;;;5045687;28;20243;-63
2023/10/14 01:03:36;;;;;;;16.85;4.63;;;;;;;;;;5046345;28;20223;-63
2023/10/14 01:06:15;;;;;;;4.78;3.95;;;;;;;;;;5045716;28;20226;-63
2023/10/14 01:08:44;;;;;;;9.90;3.88;;;;;;;;;;5045863;28;20339;-64
2023/10/14 01:11:11;;;;;;;5.90;3.53;;;;;;;;;;5045779;28;20196;-63
2023/10/14 01:13:38;;;;;;;7.97;3.45;;;;;;;;;;5046052;28;20261;-64
2023/10/14 01:16:09;;;;;;;6.32;4.57;;;;;;;;;;5045831;28;20199;-63
2023/10/14 01:18:39;;;;;;;6.38;3.83;;;;;;;;;;5049470;28;20208;-63
2023/10/14 01:21:06;;;;;;;4.07;3.65;;;;;;;;;;5049913;28;20218;-63
2023/10/14 01:23:37;;;;;;;7.45;3.90;;;;;;;;;;5049442;28;20218;-63
2023/10/14 01:26:05;;;;;;;8.23;3.83;;;;;;;;;;5050015;28;20626;-63
2023/10/14 01:28:33;;;;;;;5.78;3.88;;;;;;;;;;5050202;28;20219;-63
2023/10/14 01:31:24;;;;;;;8.38;4.68;;;;;;;;;;5049948;28;20269;-63
2023/10/14 01:33:52;;;;;;;8.15;4.35;;;;;;;;;;5049414;28;20676;-63
2023/10/14 01:36:20;;;;;;;6.60;4.30;;;;;;;;;;5049385;28;20227;-64
2023/10/14 01:38:57;;;;;;;18.52;4.20;;;;;;;;;;5049999;28;20207;-64
2023/10/14 01:41:25;;;;;;;7.95;4.55;;;;;;;;;;5049557;28;20424;-64
2023/10/14 01:43:53;;;;;;;14.07;4.50;;;;;;;;;;5049566;28;20228;-63
2023/10/14 01:46:21;;;;;;;6.82;4.40;;;;;;;;;;5048831;28;20780;-66
2023/10/14 01:48:52;;;;;;;11.85;4.72;;;;;;;;;;5049027;28;20211;-63
2023/10/14 01:51:20;;;;;;;4.75;4.07;;;;;;;;;;5049023;28;20281;-63
2023/10/14 01:53:49;;;;;;;5.65;4.22;;;;;;;;;;5049555;28;20294;-63
2023/10/14 01:56:17;;;;;;;5.80;4.13;;;;;;;;;;5049475;28;20200;-63
2023/10/14 01:58:45;;;;;;;8.40;4.20;;;;;;;;;;5048837;28;20204;-64
2023/10/14 02:01:15;;;;;;;4.72;4.22;;;;;;;;;;5048770;28;20232;-63
2023/10/14 02:03:43;;;;;;;7.72;3.85;;;;;;;;;;5049299;28;20242;-64
2023/10/14 02:06:16;;;;;;;7.60;3.97;;;;;;;;;;5049471;28;20203;-65
2023/10/14 02:08:43;;;;;;;10.63;4.35;;;;;;;;;;5049134;28;20624;-65
2023/10/14 02:11:12;;;;;;;8.10;4.10;;;;;;;;;;5049086;28;20306;-65
2023/10/14 02:13:39;;;;;;;9.48;4.68;;;;;;;;;;5049421;28;20285;-65
2023/10/14 02:16:08;;;;;;;7.00;4.53;;;;;;;;;;5049272;28;20204;-64
2023/10/14 02:18:36;;;;;;;7.25;3.72;;;;;;;;;;5048769;28;20199;-64
2023/10/14 02:21:08;;;;;;;8.57;3.65;;;;;;;;;;5048914;28;20203;-65
2023/10/14 02:23:44;;;;;;;11.27;4.13;;;;;;;;;;5049308;28;20227;-64
2023/10/14 02:26:15;;;;;;;6.38;3.88;;;;;;;;;;5049481;28;20255;-64
2023/10/14 02:28:45;;;;;;;5.72;3.28;;;;;;;;;;5049235;28;20208;-64
2023/10/14 02:31:17;;;;;;;6.93;3.60;;;;;;;;;;5049107;28;20571;-64
2023/10/14 02:33:45;;;;;;;6.47;3.80;;;;;;;;;;5049854;28;20212;-64
2023/10/14 02:36:15;;;;;;;5.03;3.17;;;;;;;;;;5039318;28;20674;-64
2023/10/14 02:38:42;;;;;;;5.28;3.05;;;;;;;;;;5049771;28;20264;-64
2023/10/14 02:41:09;;;;;;;7.95;3.58;;;;;;;;;;5049179;28;20207;-65
2023/10/14 02:43:38;;;;;;;8.82;3.33;;;;;;;;;;5049506;28;20242;-65
2023/10/14 02:46:10;;;;;;;8.80;3.75;;;;;;;;;;5049276;28;20204;-64
2023/10/14 02:48:52;;;;;;;8.50;3.28;;;;;;;;;;5049475;28;20284;-64
2023/10/14 02:51:29;;;;;;;7.82;3.20;;;;;;;;;;5049381;28;20243;-64
2023/10/14 02:53:56;;;;;;;7.25;3.55;;;;;;;;;;5049227;28;20713;-64
2023/10/14 02:56:34;;;;;;;5.30;2.95;;;;;;;;;;5049663;28;20208;-64
2023/10/14 02:59:02;;;;;;;9.20;3.03;;;;;;;;;;5039555;28;20210;-65
2023/10/14 03:01:33;;;;;;;6.05;2.67;;;;;;;;;;5049349;28;20258;-64
2023/10/14 03:04:07;;;;;;;9.23;3.42;;;;;;;;;;5049159;28;20210;-64
2023/10/14 03:06:46;;;;;;;9.52;3.22;;;;;;;;;;5049431;28;20226;-65
2023/10/14 03:09:17;;;;;;;10.10;2.90;;;;;;;;;;5048720;28;20203;-65
2023/10/14 03:11:45;;;;;;;6.97;3.13;;;;;;;;;;5049309;28;20309;-64
2023/10/14 03:14:13;;;;;;;10.07;3.45;;;;;;;;;;5048917;28;20329;-64
2023/10/14 03:16:40;;;;;;;3.55;2.90;;;;;;;;;;5048272;28;20212;-64
2023/10/14 03:19:08;;;;;;;4.95;3.10;;;;;;;;;;5048110;28;20214;-65
2023/10/14 03:21:35;;;;;;;8.90;2.83;;;;;;;;;;5048117;28;20232;-64
2023/10/14 03:24:03;;;;;;;12.27;2.80;;;;;;;;;;5048184;28;20211;-65
2023/10/14 03:26:32;;;;;;;7.80;2.40;;;;;;;;;;5047365;28;20204;-65
2023/10/14 03:29:04;;;;;;;6.82;2.50;;;;;;;;;;5048567;28;20608;-64
2023/10/14 03:31:35;;;;;;;11.00;2.47;;;;;;;;;;5048579;28;20230;-65
2023/10/14 03:34:08;;;;;;;6.93;2.40;;;;;;;;;;5048205;28;20208;-65
2023/10/14 03:36:35;;;;;;;3.42;2.10;;;;;;;;;;5048086;28;20216;-64
2023/10/14 03:39:20;;;;;;;5.45;2.08;;;;;;;;;;5047987;28;20265;-65
2023/10/14 03:41:52;;;;;;;2.42;1.95;;;;;;;;;;5046839;28;20214;-64
2023/10/14 03:44:22;;;;;;;2.25;1.90;;;;;;;;;;5047836;28;20231;-64
2023/10/14 03:47:00;;;;;;;5.43;1.77;;;;;;;;;;5047972;28;20740;-65
2023/10/14 03:49:29;;;;;;;4.70;1.70;;;;;;;;;;5047708;28;20282;-65
2023/10/14 03:51:57;;;;;;;4.07;1.30;;;;;;;;;;5047628;28;20200;-64
2023/10/14 03:54:26;;;;;;;3.42;1.55;;;;;;;;;;5047944;28;20211;-64
2023/10/14 03:56:56;;;;;;;1.38;1.27;;;;;;;;;;5047488;28;20622;-63
2023/10/14 03:59:25;;;;;;;2.90;1.27;;;;;;;;;;5047135;28;20211;-64
2023/10/14 04:01:57;;;;;;;8.00;1.90;;;;;;;;;;5047373;28;20239;-63
2023/10/14 04:04:26;;;;;;;3.60;1.27;;;;;;;;;;5047234;28;20204;-63
2023/10/14 04:07:13;;;;;;;4.20;1.15;;;;;;;;;;5047321;28;20586;-65
2023/10/14 04:09:44;;;;;;;1.27;1.00;;;;;;;;;;5047339;28;20206;-63
2023/10/14 04:12:21;;;;;;;1.85;1.10;;;;;;;;;;5047036;28;20212;-64
2023/10/14 04:14:54;;;;;;;9.68;1.15;;;;;;;;;;5048217;28;20271;-64
2023/10/14 04:17:30;;;;;;;5.88;1.40;;;;;;;;;;5047552;28;20284;-64
2023/10/14 04:20:14;;;;;;;1.67;1.08;;;;;;;;;;5047708;28;20200;-64
2023/10/14 04:22:42;;;;;;;7.80;1.95;;;;;;;;;;5037945;28;20748;-64
2023/10/14 04:25:19;;;;;;;2.08;1.60;;;;;;;;;;5047384;28;20269;-64
2023/10/14 04:28:17;;;;;;;2.13;1.38;;;;;;;;;;5047127;28;20265;-64
2023/10/14 04:30:38;;;;;;;4.00;1.40;;;;;;;;;;5047126;28;20204;-64
2023/10/14 04:33:35;;;;;;;2.25;1.20;;;;;;;;;;5047329;28;20653;-64
2023/10/14 04:39:04;;;;;;;1.63;1.42;;;;;;;;;;5027680;28;20746;-64
2023/10/14 04:41:31;;;;;;;3.95;2.00;;;;;;;;;;5027958;28;20216;-64
2023/10/14 04:44:03;;;;;;;6.05;2.17;;;;;;;;;;5027728;28;20892;-64
2023/10/14 04:46:51;;;;;;;6.57;1.75;;;;;;;;;;5027757;28;20211;-64
2023/10/14 04:49:29;;;;;;;2.70;1.50;;;;;;;;;;5040048;28;20223;-65
2023/10/14 04:51:58;;;;;;;1.73;1.60;;;;;;;;;;5047515;28;20207;-64
2023/10/14 04:54:27;;;;;;;5.50;1.70;;;;;;;;;;5047301;28;20310;-65
2023/10/14 04:56:57;;;;;;;4.10;1.20;;;;;;;;;;5047221;28;20220;-65
2023/10/14 04:59:25;;;;;;;2.20;1.27;;;;;;;;;;5047403;28;20219;-65
2023/10/14 05:01:52;;;;;;;1.58;1.00;;;;;;;;;;5047340;28;20263;-64
2023/10/14 05:04:29;;;;;;;4.70;0.98;;;;;;;;;;5046944;28;20212;-65
2023/10/14 05:06:56;;;;;;;4.05;1.00;;;;;;;;;;5042055;28;20235;-64
2023/10/14 05:09:39;;;;;;;5.93;0.95;;;;;;;;;;5047288;28;20828;-65
2023/10/14 05:12:08;;;;;;;3.28;0.60;;;;;;;;;;5047268;28;20204;-64
2023/10/14 05:14:36;;;;;;;3.15;0.52;;;;;;;;;;5047250;28;20661;-65
2023/10/14 05:17:14;;;;;;;3.85;0.47;;;;;;;;;;5027319;28;20354;-65
2023/10/14 05:19:43;;;;;;;0.68;0.35;;;;;;;;;;5039443;28;20296;-65
2023/10/14 05:22:13;;;;;;;1.65;0.30;;;;;;;;;;5046920;28;20997;-65
2023/10/14 05:24:48;;;;;;;1.13;0.40;;;;;;;;;;5046908;28;20342;-64
2023/10/14 05:27:17;;;;;;;2.60;0.52;;;;;;;;;;5047064;28;20241;-64
2023/10/14 05:29:50;;;;;;;2.13;0.35;;;;;;;;;;5047068;28;20212;-65
2023/10/14 05:32:18;;;;;;;0.95;0.40;;;;;;;;;;5047036;28;20860;-65
2023/10/14 05:34:47;;;;;;;1.33;0.50;;;;;;;;;;5046498;28;20204;-64
2023/10/14 05:37:14;;;;;;;1.48;0.30;;;;;;;;;;5047023;28;20208;-65
2023/10/14 05:39:41;;;;;;;1.65;0.40;;;;;;;;;;5046998;28;20631;-65
2023/10/14 05:42:15;;;;;;;3.65;0.40;;;;;;;;;;5046999;28;20211;-64
2023/10/14 05:44:46;;;;;;;0.50;0.30;;;;;;;;;;5047171;28;20203;-64
2023/10/14 05:47:13;;;;;;;1.70;0.10;;;;;;;;;;5046668;28;20624;-64
2023/10/14 05:49:40;;;;;;;12.68;0.80;;;;;;;;;;5046130;28;20696;-65
2023/10/14 05:52:11;;;;;;;0.73;0.40;;;;;;;;;;5046201;28;20208;-65
2023/10/14 05:54:38;;;;;;;0.20;0.20;;;;;;;;;;5045494;28;20694;-65
2023/10/14 05:57:08;;;;;;;0.30;0.20;;;;;;;;;;5045632;28;20215;-64
2023/10/14 05:59:36;;;;;;;0.40;0.40;;;;;;;;;;5046155;28;20287;-64
2023/10/14 06:02:06;;;;;;;0.10;0.10;;;;;;;;;;5045583;28;20234;-64
2023/10/14 06:04:39;;;;;;;0.50;0.13;;;;;;;;;;5046836;28;20204;-65
2023/10/14 06:07:06;;;;;;;1.52;0.30;;;;;;;;;;5050114;28;20207;-65
2023/10/14 06:09:35;;;;;;;0.30;0.20;;;;;;;;;;5050271;28;20204;-65
2023/10/14 06:12:04;;;;;;;1.83;0.20;;;;;;;;;;5049701;28;20207;-64
2023/10/14 06:14:31;;;;;;;1.05;0.28;;;;;;;;;;5049205;28;20219;-64
2023/10/14 06:16:59;;;;;;;0.25;0.00;;;;;;;;;;5049843;28;20582;-64
2023/10/14 06:19:26;;;;;;;1.50;0.10;;;;;;;;;;5049416;28;20294;-65
2023/10/14 06:21:56;;;;;;;0.03;0.03;;;;;;;;;;5049300;28;20207;-64
2023/10/14 06:24:23;;;;;;;0.30;0.10;;;;;;;;;;5049135;28;20666;-65
2023/10/14 06:26:58;;;;;;;1.60;0.30;;;;;;;;;;5032721;28;20212;-65
2023/10/14 06:29:26;;;;;;;0.10;0.10;;;;;;;;;;5049663;28;20666;-64
2023/10/14 06:31:53;;;;;;;0.25;0.25;;;;;;;;;;5049472;28;20200;-65
2023/10/14 06:34:21;;;;;;;0.28;0.10;;;;;;;;;;5049232;28;20216;-65
2023/10/14 06:36:48;;;;;;;0.10;0.10;;;;;;;;;;5049414;28;20239;-65
2023/10/14 06:39:15;;;;;;;0.38;0.20;;;;;;;;;;5049401;28;20224;-64
2023/10/14 06:41:45;;;;;;;0.68;0.20;;;;;;;;;;5048914;28;20227;-65
2023/10/14 06:44:15;;;;;;;0.10;0.10;;;;;;;;;;5048324;28;20231;-64
2023/10/14 06:46:44;;;;;;;0.10;0.10;;;;;;;;;;5048055;28;20302;-63
2023/10/14 06:49:13;;;;;;;1.85;0.30;;;;;;;;;;5048288;28;20215;-61
2023/10/14 06:51:42;;;;;;;1.48;0.25;;;;;;;;;;5048551;28;20211;-60
2023/10/14 06:54:09;;;;;;;0.40;0.40;;;;;;;;;;5048462;28;20238;-60
2023/10/14 06:56:36;;;;;;;0.28;0.28;;;;;;;;;;5048684;28;20204;-60
2023/10/14 06:59:05;;;;;;;0.28;0.28;;;;;;;;;;5048059;28;20199;-61
2023/10/14 07:01:34;;;;;;;1.77;0.20;;;;;;;;;;5033966;28;20236;-61
2023/10/14 07:04:01;;;;;;;0.70;0.20;;;;;;;;;;5042054;28;20235;-61
2023/10/14 07:06:29;;;;;;;0.63;0.10;;;;;;;;;;5048704;28;20218;-61
2023/10/14 07:08:56;;;;;;;0.15;0.15;;;;;;;;;;5048248;28;20219;-62
2023/10/14 07:11:23;;;;;;;0.40;0.28;;;;;;;;;;5048658;28;20208;-61
2023/10/14 07:13:50;;;;;;;0.30;0.22;;;;;;;;;;5048221;28;20304;-61
2023/10/14 07:16:17;;;;;;;0.15;0.15;;;;;;;;;;5047859;28;20311;-60
2023/10/14 07:18:46;;;;;;;0.10;0.10;;;;;;;;;;5048399;28;20215;-62
2023/10/14 07:21:13;;;;;;;0.20;0.20;;;;;;;;;;5048244;28;20261;-61
2023/10/14 07:23:41;;;;;;;1.55;0.30;;;;;;;;;;5048100;28;20330;-61
2023/10/14 07:26:09;;;;;;;0.82;0.45;;;;;;;;;;5039467;28;20205;-61
2023/10/14 07:28:37;;;;;;;0.50;0.50;;;;;;;;;;5034254;28;20310;-63
2023/10/14 07:31:04;;;;;;;0.82;0.40;;;;;;;;;;5047632;28;20279;-60
2023/10/14 07:33:31;;;;;;;6.82;0.70;;;;;;;;;;5047453;28;20239;-61
2023/10/14 07:36:01;;;;;;;2.83;0.80;;;;;;;;;;5047635;28;20212;-60
2023/10/14 07:38:28;;;;;;;5.47;0.90;;;;;;;;;;5047628;28;20253;-61
2023/10/14 07:41:01;;;;;;;2.45;1.00;;;;;;;;;;5039421;28;20250;-61
2023/10/14 07:43:28;;;;;;;1.95;0.90;;;;;;;;;;5047492;28;20310;-61
2023/10/14 07:45:58;;;;;;;3.67;1.02;;;;;;;;;;5047948;28;20214;-61
2023/10/14 07:48:25;;;;;;;2.83;0.93;;;;;;;;;;5047894;28;20227;-60
2023/10/14 07:50:56;;;;;;;4.18;1.35;;;;;;;;;;5047615;28;20207;-61
2023/10/14 07:53:24;;;;;;;3.67;1.13;;;;;;;;;;5047677;28;20674;-61
2023/10/14 07:55:52;;;;;;;2.95;1.02;;;;;;;;;;5047970;28;20230;-61
2023/10/14 07:58:20;;;;;;;3.78;0.68;;;;;;;;;;5047090;28;20208;-61
2023/10/14 08:00:49;;;;;;;4.53;1.60;;;;;;;;;;5046600;28;20361;-61
2023/10/14 08:03:17;;;;;;;3.22;0.88;;;;;;;;;;5047766;28;20555;-62
2023/10/14 08:05:45;;;;;;;3.40;1.08;;;;;;;;;;5047908;28;20352;-62
2023/10/14 08:08:13;;;;;;;5.88;1.17;;;;;;;;;;5047022;28;20226;-71
2023/10/14 08:10:43;;;;;;;4.40;1.08;;;;;;;;;;5046686;28;20203;-60
2023/10/14 08:13:10;;;;;;;1.98;1.17;;;;;;;;;;5045546;28;20625;-62
2023/10/14 08:15:37;;;;;;;8.25;1.40;;;;;;;;;;5046817;28;20554;-59
2023/10/14 08:18:05;;;;;;;1.83;0.88;;;;;;;;;;5047106;28;20218;-61
2023/10/14 08:20:32;;;;;;;4.22;1.23;;;;;;;;;;5046630;28;20227;-62
2023/10/14 08:23:00;;;;;;;3.95;1.10;;;;;;;;;;5047178;28;20700;-61
2023/10/14 08:25:28;;;;;;;4.50;1.10;;;;;;;;;;5046507;28;20204;-61
2023/10/14 08:27:57;;;;;;;4.75;0.98;;;;;;;;;;5046642;28;20235;-61
2023/10/14 08:30:25;;;;;;;6.55;1.38;;;;;;;;;;5047087;28;20211;-62
2023/10/14 08:32:52;;;;;;;3.22;0.75;;;;;;;;;;5047127;28;20208;-61
2023/10/14 08:35:20;;;;;;;6.32;1.05;;;;;;;;;;5046589;28;20207;-61
2023/10/14 08:37:48;;;;;;;2.95;0.90;;;;;;;;;;5046320;28;20246;-62
2023/10/14 08:40:17;;;;;;;3.75;1.10;;;;;;;;;;5047574;28;20277;-61
2023/10/14 08:42:49;;;;;;;4.43;1.08;;;;;;;;;;5047822;28;20235;-62
2023/10/14 08:45:17;;;;;;;3.45;1.05;;;;;;;;;;5047397;28;20231;-62
2023/10/14 08:47:46;;;;;;;4.90;0.80;;;;;;;;;;5047312;28;20222;-61
2023/10/14 08:50:15;;;;;;;2.97;1.05;;;;;;;;;;5047910;28;20227;-62
2023/10/14 08:52:45;;;;;;;6.72;1.50;;;;;;;;;;5047597;28;20208;-61
2023/10/14 08:55:12;;;;;;;2.72;1.10;;;;;;;;;;5048085;28;20208;-61
2023/10/14 08:57:39;;;;;;;1.42;1.05;;;;;;;;;;5047293;28;20217;-62
2023/10/14 09:00:12;;;;;;;3.42;1.23;;;;;;;;;;5047261;28;20199;-59
2023/10/14 09:02:40;;;;;;;4.40;1.13;;;;;;;;;;5046204;28;20587;-62
2023/10/14 09:05:11;;;;;;;3.10;0.90;;;;;;;;;;5046568;28;20204;-63
2023/10/14 09:07:38;;;;;;;1.55;1.00;;;;;;;;;;5044999;28;20661;-63
2023/10/14 09:10:06;;;;;;;6.22;1.00;;;;;;;;;;5044803;28;21011;-62
2023/10/14 09:12:33;;;;;;;5.47;1.30;;;;;;;;;;5046966;28;20203;-66
2023/10/14 09:15:00;;;;;;;3.53;1.17;;;;;;;;;;5045855;28;20207;-65
2023/10/14 09:17:28;;;;;;;2.35;1.05;;;;;;;;;;5045624;28;20959;-64
2023/10/14 09:19:56;;;;;;;3.75;0.95;;;;;;;;;;5045903;28;20192;-70
2023/10/14 09:22:24;;;;;;;1.00;0.88;;;;;;;;;;5047240;28;20211;-68
2023/10/14 09:24:52;;;;;;;3.45;0.90;;;;;;;;;;5046793;28;20582;-65
2023/10/14 09:27:18;;;;;;;2.05;1.15;;;;;;;;;;5047091;28;20219;-67
2023/10/14 09:29:45;;;;;;;2.55;1.00;;;;;;;;;;5046498;28;20227;-67
2023/10/14 09:32:12;;;;;;;2.65;1.00;;;;;;;;;;5041611;28;20211;-69
2023/10/14 09:34:41;;;;;;;2.05;0.93;;;;;;;;;;5043406;28;20257;-66
2023/10/14 09:37:12;;;;;;;2.60;0.85;;;;;;;;;;5045822;28;20206;-63
2023/10/14 09:39:41;;;;;;;1.83;0.85;;;;;;;;;;5055327;28;20219;-64
2023/10/14 09:42:11;;;;;;;2.67;1.10;;;;;;;;;;5049978;28;20227;-63
2023/10/14 09:44:38;;;;;;;4.38;0.98;;;;;;;;;;5044744;28;20308;-64
2023/10/14 09:47:09;;;;;;;2.95;1.10;;;;;;;;;;5050098;28;20219;-64
2023/10/14 09:49:36;;;;;;;3.10;1.00;;;;;;;;;;5052955;28;20227;-64
2023/10/14 09:52:04;;;;;;;2.42;1.20;;;;;;;;;;5049178;28;20215;-63
2023/10/14 09:54:33;;;;;;;2.20;0.98;;;;;;;;;;5048635;28;20230;-67
2023/10/14 09:57:01;;;;;;;2.53;0.93;;;;;;;;;;5050227;28;20226;-63
2023/10/14 09:59:29;;;;;;;5.03;1.30;;;;;;;;;;5054479;28;20286;-65
2023/10/14 10:01:56;;;;;;;1.50;0.90;;;;;;;;;;5054447;28;20238;-66
2023/10/14 10:04:25;;;;;;;3.13;1.15;;;;;;;;;;5052520;28;20203;-64
2023/10/14 10:06:55;;;;;;;3.33;1.08;;;;;;;;;;5053630;28;20211;-64
2023/10/14 10:09:28;;;;;;;4.18;1.17;;;;;;;;;;5048700;28;20237;-64
2023/10/14 10:11:58;;;;;;;3.38;1.10;;;;;;;;;;5054649;28;20222;-64
2023/10/14 10:14:26;;;;;;;1.65;0.80;;;;;;;;;;5059237;28;20264;-64
2023/10/14 10:16:54;;;;;;;4.45;1.23;;;;;;;;;;5054322;28;20210;-65
2023/10/14 10:19:22;;;;;;;3.53;1.25;;;;;;;;;;5055772;28;20218;-65
2023/10/14 10:22:08;;;;;;;5.55;0.88;;;;;;;;;;5059739;28;20751;-65
2023/10/14 10:24:38;;;;;;;2.83;0.93;;;;;;;;;;5044950;28;20203;-65
2023/10/14 10:27:11;;;;;;;3.25;1.05;;;;;;;;;;5043552;28;20321;-65
2023/10/14 10:29:56;;;;;;;1.85;0.85;;;;;;;;;;5049027;28;20293;-65
2023/10/14 10:32:24;;;;;;;2.85;0.95;;;;;;;;;;5049639;28;20673;-65
2023/10/14 10:35:16;;;;;;;3.55;1.02;;;;;;;;;;5060016;28;20204;-65
2023/10/14 10:37:46;;;;;;;1.75;1.17;;;;;;;;;;5056984;28;20387;-65
2023/10/14 10:40:14;;;;;;;1.75;0.55;;;;;;;;;;5067745;28;20207;-66
2023/10/14 10:42:42;;;;;;;2.72;0.80;;;;;;;;;;5053669;28;20232;-65
2023/10/14 10:45:12;;;;;;;2.05;0.70;;;;;;;;;;5049989;28;20221;-65
2023/10/14 10:47:46;;;;;;;2.25;0.70;;;;;;;;;;5049246;28;20204;-62
2023/10/14 10:50:15;;;;;;;0.68;0.65;;;;;;;;;;5048710;28;20235;-62
2023/10/14 10:52:46;;;;;;;1.75;0.75;;;;;;;;;;5049809;28;20243;-62
2023/10/14 10:55:14;;;;;;;1.65;0.60;;;;;;;;;;5048899;28;20215;-63
2023/10/14 10:57:46;;;;;;;3.70;1.00;;;;;;;;;;5045058;28;20792;-66
2023/10/14 11:00:17;;;;;;;1.70;0.70;;;;;;;;;;5048613;28;20803;-66
2023/10/14 11:02:45;;;;;;;2.45;0.90;;;;;;;;;;5046932;28;20246;-66
2023/10/14 11:05:13;;;;;;;2.85;1.00;;;;;;;;;;5049146;28;20234;-65
2023/10/14 11:07:43;;;;;;;0.95;0.60;;;;;;;;;;5048962;28;20213;-65
2023/10/14 11:10:13;;;;;;;0.93;0.68;;;;;;;;;;5048909;28;20270;-65
2023/10/14 11:12:40;;;;;;;2.95;0.88;;;;;;;;;;5048219;28;20212;-65
2023/10/14 11:15:20;;;;;;;3.97;0.98;;;;;;;;;;5046887;28;20287;-65
2023/10/14 11:17:51;;;;;;;0.95;0.80;;;;;;;;;;5042118;28;20427;-66
2023/10/14 11:20:18;;;;;;;1.17;0.98;;;;;;;;;;5048225;28;20207;-65
2023/10/14 11:22:46;;;;;;;3.80;1.40;;;;;;;;;;5048438;28;20694;-64
2023/10/14 11:25:13;;;;;;;2.45;1.23;;;;;;;;;;5047204;28;20812;-65
2023/10/14 11:27:41;;;;;;;1.85;1.50;;;;;;;;;;5048258;28;20210;-65
2023/10/14 11:30:09;;;;;;;2.30;0.90;;;;;;;;;;5046067;28;20884;-69
2023/10/14 11:32:38;;;;;;;1.05;0.70;;;;;;;;;;5046037;28;20222;-65
2023/10/14 11:35:05;;;;;;;2.38;1.30;;;;;;;;;;5045699;28;20214;-65
2023/10/14 11:37:36;;;;;;;6.78;2.17;;;;;;;;;;5046988;28;20203;-65
2023/10/14 11:40:12;;;;;;;2.97;1.85;;;;;;;;;;5049577;28;20203;-64
2023/10/14 11:42:40;;;;;;;1.85;0.77;;;;;;;;;;5047739;28;20242;-65
2023/10/14 11:45:08;;;;;;;5.63;2.40;;;;;;;;;;5055929;28;20212;-65
2023/10/14 11:47:39;;;;;;;4.82;1.60;;;;;;;;;;5041846;28;21080;-65
2023/10/14 11:50:12;;;;;;;2.53;0.90;;;;;;;;;;5047348;28;20239;-66
2023/10/14 11:52:42;;;;;;;2.53;0.90;;;;;;;;;;5044649;28;20203;-65
2023/10/14 11:55:13;;;;;;;1.55;1.08;;;;;;;;;;5045840;28;20261;-66
2023/10/14 11:57:41;;;;;;;1.42;1.15;;;;;;;;;;5047246;28;20195;-65
2023/10/14 12:00:10;;;;;;;9.85;2.90;;;;;;;;;;5047694;28;20206;-65
2023/10/14 12:02:37;;;;;;;5.18;1.92;;;;;;;;;;5045447;28;20227;-65
2023/10/14 12:05:05;;;;;;;6.85;2.40;;;;;;;;;;5047864;28;20289;-67
2023/10/14 12:07:33;;;;;;;7.50;2.63;;;;;;;;;;5051208;28;20207;-66
2023/10/14 12:10:01;;;;;;;3.92;1.70;;;;;;;;;;5052968;28;20242;-67
2023/10/14 12:12:28;;;;;;;3.75;1.23;;;;;;;;;;5047548;28;20211;-66
2023/10/14 12:14:55;;;;;;;2.40;0.77;;;;;;;;;;5059516;28;20681;-66
2023/10/14 12:17:23;;;;;;;3.13;0.80;;;;;;;;;;5054945;28;20210;-66
2023/10/14 12:19:50;;;;;;;1.58;0.60;;;;;;;;;;5046150;28;20235;-67
2023/10/14 12:22:17;;;;;;;1.80;0.60;;;;;;;;;;5045408;28;20216;-65
2023/10/14 12:24:47;;;;;;;2.50;0.80;;;;;;;;;;5054841;28;20494;-65
2023/10/14 12:27:14;;;;;;;2.90;1.02;;;;;;;;;;5047875;28;20305;-68
2023/10/14 12:29:42;;;;;;;1.55;1.33;;;;;;;;;;5033957;28;20697;-63
2023/10/14 12:32:12;;;;;;;4.53;1.48;;;;;;;;;;5036076;28;20219;-63
2023/10/14 12:34:43;;;;;;;3.97;1.23;;;;;;;;;;5043515;28;20215;-64
2023/10/14 12:37:17;;;;;;;7.75;2.10;;;;;;;;;;5044212;28;20256;-64
2023/10/14 12:39:49;;;;;;;3.63;1.20;;;;;;;;;;5046182;28;20207;-63
2023/10/14 12:42:17;;;;;;;2.60;0.85;;;;;;;;;;5045867;28;20261;-63
2023/10/14 12:44:47;;;;;;;1.88;0.80;;;;;;;;;;5043004;28;20204;-63
2023/10/14 12:47:14;;;;;;;8.93;3.60;;;;;;;;;;5045812;28;20269;-63
2023/10/14 12:49:42;;;;;;;2.95;1.10;;;;;;;;;;5045958;28;20224;-65
2023/10/14 12:52:13;;;;;;;3.70;2.03;;;;;;;;;;5045530;28;20218;-71
2023/10/14 12:54:40;;;;;;;2.00;0.82;;;;;;;;;;5046535;28;20304;-68
2023/10/14 12:57:09;;;;;;;0.55;0.40;;;;;;;;;;5051939;28;20213;-69
2023/10/14 12:59:40;;;;;;;4.20;0.93;;;;;;;;;;5048406;28;20203;-61
2023/10/14 13:02:08;;;;;;;5.05;0.90;;;;;;;;;;5051772;28;20695;-61
2023/10/14 13:04:37;;;;;;;3.10;1.40;;;;;;;;;;5058065;28;20441;-65
2023/10/14 13:07:08;;;;;;;5.68;0.95;;;;;;;;;;5066563;28;20226;-68
2023/10/14 13:09:35;;;;;;;2.45;0.70;;;;;;;;;;5052358;28;20210;-69
2023/10/14 13:12:08;;;;;;;0.98;0.60;;;;;;;;;;5027046;28;20205;-68
2023/10/14 13:14:38;;;;;;;1.15;0.70;;;;;;;;;;5054307;28;20212;-66
2023/10/14 13:17:07;;;;;;;3.17;0.85;;;;;;;;;;5047734;28;20324;-68
2023/10/14 13:19:35;;;;;;;2.53;0.60;;;;;;;;;;5047076;28;20695;-68
2023/10/14 13:22:08;;;;;;;3.03;0.65;;;;;;;;;;5065688;28;20665;-66
2023/10/14 13:24:35;;;;;;;4.68;1.05;;;;;;;;;;5054970;28;20298;-66
2023/10/14 13:27:02;;;;;;;2.28;0.75;;;;;;;;;;5047268;28;20211;-68
2023/10/14 13:29:29;;;;;;;1.23;0.50;;;;;;;;;;5046112;28;20219;-72
2023/10/14 13:31:59;;;;;;;0.68;0.40;;;;;;;;;;5047746;28;20204;-68
2023/10/14 13:34:26;;;;;;;3.08;0.40;;;;;;;;;;5046341;28;20948;-69
2023/10/14 13:36:53;;;;;;;1.35;0.50;;;;;;;;;;5045110;28;20361;-63
2023/10/14 13:39:20;;;;;;;0.65;0.50;;;;;;;;;;5050694;28;20261;-64
2023/10/14 13:41:48;;;;;;;0.43;0.40;;;;;;;;;;5051182;28;20212;-62
2023/10/14 13:44:15;;;;;;;3.05;0.70;;;;;;;;;;5045997;28;20636;-64
2023/10/14 13:46:43;;;;;;;0.68;0.68;;;;;;;;;;5046104;28;20218;-65
2023/10/14 13:49:11;;;;;;;0.68;0.68;;;;;;;;;;5046802;28;20702;-63
2023/10/14 13:51:40;;;;;;;1.98;0.77;;;;;;;;;;5045589;28;20281;-65
2023/10/14 13:54:08;;;;;;;2.38;0.65;;;;;;;;;;5046095;28;20212;-64
2023/10/14 13:56:35;;;;;;;4.32;0.77;;;;;;;;;;5044920;28;20215;-62
2023/10/14 13:59:04;;;;;;;1.77;0.70;;;;;;;;;;5039335;28;20239;-63
2023/10/14 14:01:31;;;;;;;1.58;0.70;;;;;;;;;;5043393;28;20343;-63
2023/10/14 14:04:00;;;;;;;1.40;0.50;;;;;;;;;;5044028;28;20207;-63
2023/10/14 14:06:29;;;;;;;2.72;0.50;;;;;;;;;;5042837;28;20211;-63
2023/10/14 14:08:56;;;;;;;2.30;0.73;;;;;;;;;;5043109;28;20601;-63
2023/10/14 14:11:24;;;;;;;2.47;0.52;;;;;;;;;;5043012;28;20277;-64
2023/10/14 14:13:51;;;;;;;2.40;0.57;;;;;;;;;;5049033;28;20208;-62
2023/10/14 14:16:19;;;;;;;2.92;0.60;;;;;;;;;;5044084;28;20293;-63
2023/10/14 14:18:48;;;;;;;4.50;0.88;;;;;;;;;;5043512;28;20231;-63
2023/10/14 14:21:16;;;;;;;3.08;0.75;;;;;;;;;;5055593;28;20359;-64
2023/10/14 14:23:44;;;;;;;1.88;0.50;;;;;;;;;;5047072;28;20223;-63
2023/10/14 14:26:17;;;;;;;0.63;0.50;;;;;;;;;;5048512;28;20676;-64
2023/10/14 14:28:44;;;;;;;2.53;0.60;;;;;;;;;;5060977;28;20262;-63
2023/10/14 14:31:12;;;;;;;1.23;0.90;;;;;;;;;;5055044;28;20228;-64
2023/10/14 14:33:42;;;;;;;2.70;0.70;;;;;;;;;;5057107;28;20246;-62
2023/10/14 14:36:10;;;;;;;0.80;0.50;;;;;;;;;;5053501;28;20281;-65
2023/10/14 14:38:38;;;;;;;2.30;0.80;;;;;;;;;;5056611;28;20292;-64
2023/10/14 14:41:08;;;;;;;1.70;0.68;;;;;;;;;;5054068;28;20306;-65
2023/10/14 14:43:37;;;;;;;4.22;0.90;;;;;;;;;;5065804;28;20235;-62
2023/10/14 14:46:07;;;;;;;2.00;0.63;;;;;;;;;;5048004;28;20771;-63
2023/10/14 14:48:35;;;;;;;1.10;0.60;;;;;;;;;;5053895;28;20939;-63
2023/10/14 14:51:03;;;;;;;1.85;0.68;;;;;;;;;;5052389;28;20233;-63
2023/10/14 14:53:31;;;;;;;1.25;0.70;;;;;;;;;;5058660;28;20208;-63
2023/10/14 14:55:59;;;;;;;1.75;1.00;;;;;;;;;;5046087;28;20200;-62
2023/10/14 14:58:28;;;;;;;1.52;0.50;;;;;;;;;;5050703;28;20219;-66
2023/10/14 15:00:56;;;;;;;1.42;0.57;;;;;;;;;;5046722;28;21046;-62